Time;durP1;ratioP1;P1;durP2;ratioP2;P2;SDS_P1;SDS_P2;PMS_P1;PMS_P2;Temp;Humidity;BMP_temperature;BMP_pressure;BME280_temperature;BME280_humidity;BME280_pressure;Samples;Min_cycle;Max_cycle;Signal;HPM_P1;HPM_P2
2022/11/20 00:00:08;;;;;;;3.15;2.00;;;;;;;;;;5127911;27;20047;-73
2022/11/20 00:02:38;;;;;;;6.40;2.50;;;;;;;;;;5127934;27;20050;-72
2022/11/20 00:05:08;;;;;;;4.22;2.30;;;;;;;;;;5127063;27;20042;-72
2022/11/20 00:07:38;;;;;;;8.98;2.95;;;;;;;;;;5127609;27;20043;-72
2022/11/20 00:10:09;;;;;;;7.72;2.78;;;;;;;;;;5127767;27;20433;-74
2022/11/20 00:12:39;;;;;;;10.85;2.40;;;;;;;;;;5126895;27;20457;-72
2022/11/20 00:15:10;;;;;;;5.85;2.88;;;;;;;;;;5125172;27;20051;-72
2022/11/20 00:17:39;;;;;;;10.30;2.90;;;;;;;;;;5124740;27;20054;-75
2022/11/20 00:20:10;;;;;;;6.10;2.28;;;;;;;;;;5125107;27;20058;-73
2022/11/20 00:22:40;;;;;;;5.35;2.83;;;;;;;;;;5125254;27;20489;-73
2022/11/20 00:25:10;;;;;;;9.45;2.75;;;;;;;;;;5125079;27;20061;-72
2022/11/20 00:27:39;;;;;;;8.88;3.10;;;;;;;;;;5125176;27;20051;-75
2022/11/20 00:30:09;;;;;;;7.47;2.90;;;;;;;;;;5125942;27;20532;-73
2022/11/20 00:32:43;;;;;;;6.22;2.63;;;;;;;;;;5127099;27;20043;-74
2022/11/20 00:35:13;;;;;;;7.22;2.78;;;;;;;;;;5127391;27;20374;-73
2022/11/20 00:37:44;;;;;;;8.73;3.03;;;;;;;;;;5127266;27;20043;-75
2022/11/20 00:40:13;;;;;;;7.20;3.13;;;;;;;;;;5125765;27;20047;-72
2022/11/20 00:42:43;;;;;;;8.43;3.17;;;;;;;;;;5126882;27;20043;-75
2022/11/20 00:45:13;;;;;;;7.63;2.70;;;;;;;;;;5126043;27;20536;-76
2022/11/20 00:47:43;;;;;;;9.02;3.03;;;;;;;;;;5127215;27;20050;-73
2022/11/20 00:50:13;;;;;;;8.82;3.03;;;;;;;;;;5126973;27;20043;-73
2022/11/20 00:52:43;;;;;;;8.23;3.08;;;;;;;;;;5125751;27;20046;-75
2022/11/20 00:55:12;;;;;;;12.00;3.80;;;;;;;;;;5126711;28;20043;-74
2022/11/20 00:57:42;;;;;;;7.32;3.33;;;;;;;;;;5126888;28;20043;-74
2022/11/20 01:00:13;;;;;;;6.90;3.42;;;;;;;;;;5127307;28;20524;-73
2022/11/20 01:02:43;;;;;;;10.88;3.60;;;;;;;;;;5126844;27;20516;-75
2022/11/20 01:05:12;;;;;;;9.07;3.95;;;;;;;;;;5126718;27;20505;-71
2022/11/20 01:07:42;;;;;;;7.57;2.72;;;;;;;;;;5126651;28;20043;-74
2022/11/20 01:10:12;;;;;;;12.00;3.03;;;;;;;;;;5126876;28;20430;-72
2022/11/20 01:12:42;;;;;;;9.68;3.55;;;;;;;;;;5126769;28;20050;-71
2022/11/20 01:15:12;;;;;;;9.07;3.00;;;;;;;;;;5127161;28;20039;-74
2022/11/20 01:17:41;;;;;;;12.90;3.55;;;;;;;;;;5126644;28;20039;-72
2022/11/20 01:20:11;;;;;;;11.10;3.10;;;;;;;;;;5126736;28;20489;-76
2022/11/20 01:22:41;;;;;;;11.32;3.25;;;;;;;;;;5127104;28;20061;-72
2022/11/20 01:25:11;;;;;;;9.20;2.92;;;;;;;;;;5125314;28;20051;-74
2022/11/20 01:27:40;;;;;;;8.57;3.10;;;;;;;;;;5126789;28;20101;-75
2022/11/20 01:30:11;;;;;;;8.88;3.92;;;;;;;;;;5126450;28;20050;-72
2022/11/20 01:32:41;;;;;;;7.30;3.00;;;;;;;;;;5126642;28;20054;-72
2022/11/20 01:35:11;;;;;;;8.98;3.55;;;;;;;;;;5126238;28;20387;-73
2022/11/20 01:37:40;;;;;;;7.22;2.83;;;;;;;;;;5125838;28;20047;-74
2022/11/20 01:40:11;;;;;;;9.77;3.42;;;;;;;;;;5120498;28;20063;-72
2022/11/20 01:46:18;;;;;;;7.88;3.60;;;;;;;;;;5125885;27;20070;-72
2022/11/20 01:49:08;;;;;;;10.88;3.75;;;;;;;;;;5127716;27;20413;-73
2022/11/20 01:51:57;;;;;;;7.07;3.50;;;;;;;;;;5128306;27;20051;-75
2022/11/20 01:54:45;;;;;;;6.63;2.92;;;;;;;;;;5131178;27;20051;-75
2022/11/20 01:57:17;;;;;;;8.98;3.25;;;;;;;;;;5130937;27;20415;-71
2022/11/20 01:59:57;;;;;;;6.82;3.10;;;;;;;;;;5130083;27;20047;-74
2022/11/20 02:02:28;;;;;;;9.65;2.97;;;;;;;;;;5129364;27;20797;-74
2022/11/20 02:05:04;;;;;;;5.90;2.90;;;;;;;;;;5132019;27;20066;-71
2022/11/20 02:07:35;;;;;;;6.88;3.30;;;;;;;;;;5137848;27;20043;-75
2022/11/20 02:10:06;;;;;;;10.25;2.88;;;;;;;;;;5130545;27;20039;-72
2022/11/20 02:15:25;;;;;;;6.25;3.10;;;;;;;;;;5129995;27;20595;-73
2022/11/20 02:17:58;;;;;;;10.10;3.15;;;;;;;;;;5129724;27;20528;-76
2022/11/20 02:20:29;;;;;;;8.55;3.33;;;;;;;;;;5129555;27;20124;-72
2022/11/20 02:23:08;;;;;;;8.30;3.28;;;;;;;;;;5129758;27;20043;-76
2022/11/20 02:25:40;;;;;;;6.78;2.92;;;;;;;;;;5129734;27;20051;-76
2022/11/20 02:28:11;;;;;;;7.78;4.10;;;;;;;;;;5129509;27;20402;-75
2022/11/20 02:30:40;;;;;;;10.18;3.47;;;;;;;;;;5130002;27;20390;-75
2022/11/20 02:33:10;;;;;;;6.32;2.70;;;;;;;;;;5129316;27;20161;-72
2022/11/20 02:35:43;;;;;;;10.10;3.35;;;;;;;;;;5129560;27;20607;-73
2022/11/20 02:38:14;;;;;;;8.82;3.55;;;;;;;;;;5129890;27;20421;-74
2022/11/20 02:40:45;;;;;;;8.07;3.10;;;;;;;;;;5129493;27;20153;-76
2022/11/20 02:43:20;;;;;;;8.80;3.47;;;;;;;;;;5129185;27;20043;-76
2022/11/20 02:45:50;;;;;;;10.07;3.75;;;;;;;;;;5129946;27;20410;-77
2022/11/20 02:48:20;;;;;;;8.40;3.50;;;;;;;;;;5129860;27;20047;-74
2022/11/20 02:50:52;;;;;;;6.85;3.42;;;;;;;;;;5129950;27;20047;-73
2022/11/20 02:53:22;;;;;;;6.35;3.22;;;;;;;;;;5129149;27;20051;-75
2022/11/20 02:55:52;;;;;;;11.32;5.07;;;;;;;;;;5128229;27;20390;-74
2022/11/20 02:58:22;;;;;;;8.20;3.63;;;;;;;;;;5129003;27;20043;-76
2022/11/20 03:00:53;;;;;;;9.07;3.40;;;;;;;;;;5130017;27;20042;-75
2022/11/20 03:03:23;;;;;;;9.23;3.65;;;;;;;;;;5128264;27;20439;-72
2022/11/20 03:05:54;;;;;;;6.72;3.67;;;;;;;;;;5128978;27;20056;-73
2022/11/20 03:08:24;;;;;;;5.70;2.97;;;;;;;;;;5128527;27;20055;-73
2022/11/20 03:10:54;;;;;;;9.68;3.08;;;;;;;;;;5129062;27;20066;-73
2022/11/20 03:13:25;;;;;;;7.30;3.58;;;;;;;;;;5110026;27;20043;-71
2022/11/20 03:15:55;;;;;;;5.75;3.53;;;;;;;;;;5129112;27;20039;-74
2022/11/20 03:18:28;;;;;;;8.55;3.47;;;;;;;;;;5128648;27;20733;-74
2022/11/20 03:20:59;;;;;;;13.32;4.57;;;;;;;;;;5128396;27;20062;-75
2022/11/20 03:23:31;;;;;;;6.50;3.83;;;;;;;;;;5129551;27;20074;-74
2022/11/20 03:26:16;;;;;;;5.30;3.40;;;;;;;;;;5128667;27;20086;-73
2022/11/20 03:28:57;;;;;;;9.75;3.55;;;;;;;;;;5128452;27;20054;-76
2022/11/20 03:31:29;;;;;;;8.73;3.42;;;;;;;;;;5128237;27;20047;-71
2022/11/20 03:34:00;;;;;;;5.60;4.07;;;;;;;;;;5128456;27;20410;-75
2022/11/20 03:36:31;;;;;;;4.50;3.75;;;;;;;;;;5127139;27;20047;-72
2022/11/20 03:39:01;;;;;;;9.80;4.00;;;;;;;;;;5128416;27;20051;-75
2022/11/20 03:41:31;;;;;;;10.10;3.90;;;;;;;;;;5128601;27;20050;-75
2022/11/20 03:44:05;;;;;;;8.02;3.83;;;;;;;;;;5128086;27;20043;-73
2022/11/20 03:46:35;;;;;;;7.88;3.67;;;;;;;;;;5128772;27;20498;-73
2022/11/20 03:49:05;;;;;;;5.88;3.40;;;;;;;;;;5128373;27;20047;-71
2022/11/20 03:51:37;;;;;;;9.57;3.53;;;;;;;;;;5126463;27;20073;-74
2022/11/20 03:54:08;;;;;;;5.55;3.30;;;;;;;;;;5128156;27;20502;-74
2022/11/20 03:56:39;;;;;;;8.45;3.70;;;;;;;;;;5126195;27;20051;-74
2022/11/20 03:59:11;;;;;;;7.22;3.50;;;;;;;;;;5127255;27;20657;-75
2022/11/20 04:01:41;;;;;;;8.80;3.78;;;;;;;;;;5127504;27;20054;-74
2022/11/20 04:04:17;;;;;;;7.47;3.80;;;;;;;;;;5126510;27;20065;-72
2022/11/20 04:06:46;;;;;;;6.68;4.13;;;;;;;;;;5108638;27;20062;-71
2022/11/20 04:09:16;;;;;;;6.88;3.97;;;;;;;;;;5126654;27;20047;-70
2022/11/20 04:11:46;;;;;;;7.30;3.50;;;;;;;;;;5128476;27;20046;-75
2022/11/20 04:14:17;;;;;;;7.63;3.63;;;;;;;;;;5127676;27;20039;-76
2022/11/20 04:16:47;;;;;;;6.22;4.13;;;;;;;;;;5127848;27;20052;-75
2022/11/20 04:19:17;;;;;;;6.97;3.47;;;;;;;;;;5127265;27;20039;-75
2022/11/20 04:21:47;;;;;;;6.57;4.30;;;;;;;;;;5127668;27;20520;-76
2022/11/20 04:24:17;;;;;;;9.05;3.83;;;;;;;;;;5127575;27;20532;-72
2022/11/20 04:26:46;;;;;;;7.22;3.70;;;;;;;;;;5127063;27;20062;-70
2022/11/20 04:29:16;;;;;;;7.30;4.45;;;;;;;;;;5127482;27;20069;-76
2022/11/20 04:31:46;;;;;;;6.22;3.72;;;;;;;;;;5125732;27;20054;-74
2022/11/20 04:34:16;;;;;;;5.68;3.25;;;;;;;;;;5126531;27;20047;-76
2022/11/20 04:36:46;;;;;;;7.45;4.45;;;;;;;;;;5127078;27;20054;-72
2022/11/20 04:39:16;;;;;;;8.50;3.70;;;;;;;;;;5129209;27;20051;-71
2022/11/20 04:41:46;;;;;;;10.35;3.67;;;;;;;;;;5132094;27;20067;-75
2022/11/20 04:44:16;;;;;;;9.20;3.83;;;;;;;;;;5127243;27;20051;-73
2022/11/20 04:46:46;;;;;;;7.32;3.80;;;;;;;;;;5126568;27;20508;-74
2022/11/20 04:49:15;;;;;;;6.03;3.60;;;;;;;;;;5127160;27;20043;-75
2022/11/20 04:51:45;;;;;;;5.65;3.92;;;;;;;;;;5126919;27;20604;-76
2022/11/20 04:54:16;;;;;;;7.75;4.50;;;;;;;;;;5127062;27;20490;-72
2022/11/20 04:56:47;;;;;;;7.32;4.30;;;;;;;;;;5126963;28;20039;-73
2022/11/20 04:59:18;;;;;;;9.18;4.18;;;;;;;;;;5127794;28;20071;-71
2022/11/20 05:01:48;;;;;;;7.38;4.45;;;;;;;;;;5127605;28;20047;-71
2022/11/20 05:04:18;;;;;;;6.28;3.85;;;;;;;;;;5125346;28;20044;-75
2022/11/20 05:06:50;;;;;;;7.18;4.40;;;;;;;;;;5126813;28;20047;-75
2022/11/20 05:09:20;;;;;;;6.68;4.50;;;;;;;;;;5126912;28;20047;-77
2022/11/20 05:11:50;;;;;;;6.03;4.03;;;;;;;;;;5126881;28;20043;-73
2022/11/20 05:14:20;;;;;;;9.02;4.05;;;;;;;;;;5126918;28;20042;-72
2022/11/20 05:16:50;;;;;;;8.25;3.95;;;;;;;;;;5125928;28;20043;-74
2022/11/20 05:19:20;;;;;;;7.13;4.35;;;;;;;;;;5127901;27;20059;-73
2022/11/20 05:21:49;;;;;;;12.73;4.78;;;;;;;;;;5131074;27;20740;-71
2022/11/20 05:24:19;;;;;;;7.88;4.07;;;;;;;;;;5131030;27;20710;-74
2022/11/20 05:26:49;;;;;;;9.50;4.25;;;;;;;;;;5131063;27;20066;-73
2022/11/20 05:29:19;;;;;;;9.45;4.95;;;;;;;;;;5130940;27;20054;-73
2022/11/20 05:31:49;;;;;;;10.30;4.45;;;;;;;;;;5129447;27;20047;-75
2022/11/20 05:34:19;;;;;;;7.13;4.57;;;;;;;;;;5130887;27;20394;-73
2022/11/20 05:36:49;;;;;;;8.88;4.30;;;;;;;;;;5130822;27;20057;-75
2022/11/20 05:39:20;;;;;;;4.57;3.60;;;;;;;;;;5130575;27;20047;-73
2022/11/20 05:42:29;;;;;;;9.93;4.05;;;;;;;;;;5131095;27;20055;-75
2022/11/20 05:44:40;;;;;;;9.95;3.80;;;;;;;;;;5130663;27;20055;-75
2022/11/20 05:47:09;;;;;;;8.00;4.35;;;;;;;;;;5130781;27;20055;-72
2022/11/20 05:49:39;;;;;;;6.15;4.10;;;;;;;;;;5128914;27;20532;-74
2022/11/20 05:52:09;;;;;;;5.88;4.00;;;;;;;;;;5130139;27;20043;-76
2022/11/20 05:54:38;;;;;;;11.85;4.88;;;;;;;;;;5128814;27;20047;-72
2022/11/20 05:57:08;;;;;;;10.20;3.92;;;;;;;;;;5129933;27;20043;-75
2022/11/20 05:59:38;;;;;;;10.68;4.00;;;;;;;;;;5130702;27;20054;-74
2022/11/20 06:02:08;;;;;;;7.03;3.70;;;;;;;;;;5130210;27;20047;-73
2022/11/20 06:04:38;;;;;;;5.63;3.72;;;;;;;;;;5128595;27;20062;-75
2022/11/20 06:07:08;;;;;;;6.18;3.55;;;;;;;;;;5130394;27;20048;-76
2022/11/20 06:09:38;;;;;;;7.18;3.53;;;;;;;;;;5130256;27;20070;-71
2022/11/20 06:12:08;;;;;;;9.48;3.70;;;;;;;;;;5130471;27;20051;-75
2022/11/20 06:14:38;;;;;;;9.63;4.60;;;;;;;;;;5130184;27;20417;-77
2022/11/20 06:17:07;;;;;;;6.75;3.78;;;;;;;;;;5130313;27;20047;-73
2022/11/20 06:19:37;;;;;;;6.47;3.92;;;;;;;;;;5130117;27;20047;-76
2022/11/20 06:22:07;;;;;;;6.63;3.95;;;;;;;;;;5130233;27;20043;-72
2022/11/20 06:24:37;;;;;;;8.25;4.07;;;;;;;;;;5130133;27;20047;-75
2022/11/20 06:27:07;;;;;;;7.18;4.40;;;;;;;;;;5129533;27;20395;-74
2022/11/20 06:29:37;;;;;;;9.40;4.03;;;;;;;;;;5129755;27;20038;-72
2022/11/20 06:32:06;;;;;;;5.22;3.35;;;;;;;;;;5128941;27;20043;-72
2022/11/20 06:34:36;;;;;;;5.13;3.70;;;;;;;;;;5129350;27;20048;-72
2022/11/20 06:37:06;;;;;;;6.30;4.13;;;;;;;;;;5129558;27;20047;-75
2022/11/20 06:39:35;;;;;;;7.03;3.83;;;;;;;;;;5129512;27;20047;-75
2022/11/20 06:42:05;;;;;;;10.02;4.28;;;;;;;;;;5129315;27;20051;-72
2022/11/20 06:44:35;;;;;;;5.75;3.60;;;;;;;;;;5128337;27;20047;-73
2022/11/20 06:47:05;;;;;;;6.22;3.92;;;;;;;;;;5129151;27;20494;-73
2022/11/20 06:49:36;;;;;;;6.72;4.30;;;;;;;;;;5128976;27;20116;-75
2022/11/20 06:52:07;;;;;;;5.45;4.18;;;;;;;;;;5129886;27;20802;-74
2022/11/20 06:54:36;;;;;;;5.47;3.42;;;;;;;;;;5129483;27;20046;-75
2022/11/20 06:57:06;;;;;;;5.80;4.47;;;;;;;;;;5129458;27;20042;-75
2022/11/20 06:59:36;;;;;;;6.90;3.58;;;;;;;;;;5128943;27;20077;-71
2022/11/20 07:02:06;;;;;;;5.13;4.38;;;;;;;;;;5128869;27;20054;-71
2022/11/20 07:04:35;;;;;;;10.77;4.50;;;;;;;;;;5129510;27;20043;-75
2022/11/20 07:07:06;;;;;;;7.57;3.83;;;;;;;;;;5128924;27;20043;-70
2022/11/20 07:09:35;;;;;;;6.57;4.05;;;;;;;;;;5128905;27;20047;-73
2022/11/20 07:12:05;;;;;;;6.72;4.10;;;;;;;;;;5129129;27;20066;-75
2022/11/20 07:14:35;;;;;;;6.18;4.13;;;;;;;;;;5128478;27;20042;-72
2022/11/20 07:17:05;;;;;;;6.57;4.18;;;;;;;;;;5128840;27;20549;-74
2022/11/20 07:19:35;;;;;;;11.02;4.57;;;;;;;;;;5129444;27;20039;-74
2022/11/20 07:22:05;;;;;;;5.90;3.63;;;;;;;;;;5128666;27;20047;-76
2022/11/20 07:24:35;;;;;;;7.70;3.67;;;;;;;;;;5129140;27;20046;-71
2022/11/20 07:27:09;;;;;;;7.50;3.40;;;;;;;;;;5129050;27;20461;-73
2022/11/20 07:29:40;;;;;;;6.40;4.00;;;;;;;;;;5128579;27;20050;-75
2022/11/20 07:32:10;;;;;;;7.43;3.28;;;;;;;;;;5128280;27;20043;-75
2022/11/20 07:34:40;;;;;;;7.82;3.25;;;;;;;;;;5128365;27;20051;-75
2022/11/20 07:37:09;;;;;;;5.57;3.53;;;;;;;;;;5128233;27;20047;-73
2022/11/20 07:39:39;;;;;;;6.95;3.97;;;;;;;;;;5128203;27;20154;-76
2022/11/20 07:42:10;;;;;;;5.47;3.90;;;;;;;;;;5127786;27;20062;-73
2022/11/20 07:44:39;;;;;;;5.85;3.72;;;;;;;;;;5128883;27;20054;-73
2022/11/20 07:47:09;;;;;;;6.90;3.72;;;;;;;;;;5128315;27;20055;-73
2022/11/20 07:49:39;;;;;;;6.07;3.60;;;;;;;;;;5128135;27;20524;-72
2022/11/20 07:52:08;;;;;;;8.05;3.92;;;;;;;;;;5128118;27;20062;-75
2022/11/20 07:54:38;;;;;;;6.18;4.07;;;;;;;;;;5127968;27;20050;-77
2022/11/20 07:57:08;;;;;;;5.43;3.35;;;;;;;;;;5126659;27;20057;-75
2022/11/20 07:59:38;;;;;;;5.25;3.70;;;;;;;;;;5127810;27;20058;-74
2022/11/20 08:02:11;;;;;;;5.97;3.30;;;;;;;;;;5127865;27;20061;-72
2022/11/20 08:04:42;;;;;;;4.60;3.00;;;;;;;;;;5127823;27;20046;-74
2022/11/20 08:07:11;;;;;;;7.82;3.90;;;;;;;;;;5127669;27;20058;-72
2022/11/20 08:09:42;;;;;;;6.85;3.15;;;;;;;;;;5128240;27;20047;-71
2022/11/20 08:15:10;;;;;;;6.40;3.25;;;;;;;;;;5127857;27;20532;-73
2022/11/20 08:17:41;;;;;;;6.53;3.22;;;;;;;;;;5127777;27;20050;-73
2022/11/20 08:20:31;;;;;;;4.50;3.58;;;;;;;;;;5128027;27;20518;-72
2022/11/20 08:23:07;;;;;;;4.65;3.22;;;;;;;;;;5127648;27;20062;-74
2022/11/20 08:25:38;;;;;;;4.82;3.20;;;;;;;;;;5127499;27;20055;-72
2022/11/20 08:28:10;;;;;;;8.70;3.15;;;;;;;;;;5127564;27;20046;-76
2022/11/20 08:30:49;;;;;;;6.53;3.97;;;;;;;;;;5125587;27;20051;-72
2022/11/20 08:33:38;;;;;;;7.68;4.30;;;;;;;;;;5166206;27;19919;-70
2022/11/20 08:36:09;;;;;;;6.90;4.03;;;;;;;;;;5145312;27;20454;-73
2022/11/20 08:38:38;;;;;;;7.63;3.58;;;;;;;;;;5145174;27;20493;-75
2022/11/20 08:41:23;;;;;;;5.32;3.10;;;;;;;;;;5145412;27;20049;-70
2022/11/20 08:43:56;;;;;;;4.85;3.58;;;;;;;;;;5144936;27;20374;-73
2022/11/20 08:46:33;;;;;;;5.25;3.65;;;;;;;;;;5126632;27;20529;-71
2022/11/20 08:49:04;;;;;;;7.63;4.32;;;;;;;;;;5145386;27;20046;-75
2022/11/20 08:51:34;;;;;;;6.93;3.55;;;;;;;;;;5144524;27;20054;-74
2022/11/20 08:54:05;;;;;;;7.20;3.25;;;;;;;;;;5144954;27;20516;-74
2022/11/20 08:56:36;;;;;;;6.05;3.05;;;;;;;;;;5144750;27;20050;-74
2022/11/20 08:59:06;;;;;;;4.30;2.80;;;;;;;;;;5145225;27;20427;-76
2022/11/20 09:01:56;;;;;;;6.85;3.22;;;;;;;;;;5145760;27;20043;-75
2022/11/20 09:04:25;;;;;;;5.88;3.00;;;;;;;;;;5144668;27;20046;-70
2022/11/20 09:06:55;;;;;;;4.90;2.78;;;;;;;;;;5144056;27;20043;-75
2022/11/20 09:09:25;;;;;;;6.47;3.75;;;;;;;;;;5144425;27;20062;-75
2022/11/20 09:11:55;;;;;;;3.97;2.35;;;;;;;;;;5144806;27;20527;-76
2022/11/20 09:14:28;;;;;;;5.63;2.92;;;;;;;;;;5144682;27;20416;-72
2022/11/20 09:16:58;;;;;;;4.00;2.60;;;;;;;;;;5143058;27;20041;-72
2022/11/20 09:19:29;;;;;;;7.75;2.78;;;;;;;;;;5123707;28;20044;-73
2022/11/20 09:22:04;;;;;;;5.53;2.90;;;;;;;;;;5123540;28;20063;-73
2022/11/20 09:24:34;;;;;;;4.57;2.40;;;;;;;;;;5123708;28;20054;-75
2022/11/20 09:27:05;;;;;;;4.57;2.67;;;;;;;;;;5123647;28;20500;-72
2022/11/20 09:29:35;;;;;;;12.45;2.72;;;;;;;;;;5123700;28;20070;-75
2022/11/20 09:32:05;;;;;;;8.00;2.28;;;;;;;;;;5123177;28;20051;-78
2022/11/20 09:34:35;;;;;;;6.05;2.40;;;;;;;;;;5123538;28;20060;-73
2022/11/20 09:37:05;;;;;;;5.25;2.30;;;;;;;;;;5123254;28;20043;-75
2022/11/20 09:39:38;;;;;;;4.72;2.42;;;;;;;;;;5123406;28;20039;-71
2022/11/20 09:42:35;;;;;;;6.15;2.40;;;;;;;;;;5122921;28;20044;-71
2022/11/20 09:45:25;;;;;;;3.58;2.10;;;;;;;;;;5098399;28;20055;-73
2022/11/20 09:48:01;;;;;;;6.07;2.20;;;;;;;;;;5109473;28;20043;-76
2022/11/20 09:50:41;;;;;;;6.15;2.03;;;;;;;;;;5109836;28;20058;-74
2022/11/20 09:53:50;;;;;;;4.38;2.33;;;;;;;;;;5109104;28;20056;-74
2022/11/20 09:56:21;;;;;;;6.38;2.70;;;;;;;;;;5110004;28;20384;-74
2022/11/20 09:58:54;;;;;;;4.93;2.22;;;;;;;;;;5109104;28;20051;-78
2022/11/20 10:01:30;;;;;;;4.25;2.50;;;;;;;;;;5108776;28;20426;-74
2022/11/20 10:04:04;;;;;;;4.20;1.98;;;;;;;;;;5109175;28;20043;-73
2022/11/20 10:07:09;;;;;;;3.28;1.98;;;;;;;;;;5107110;28;20088;-72
2022/11/20 10:10:00;;;;;;;4.53;2.33;;;;;;;;;;5108548;28;20050;-70
2022/11/20 10:12:56;;;;;;;5.05;2.17;;;;;;;;;;5106245;28;20051;-76
2022/11/20 10:15:59;;;;;;;4.80;2.30;;;;;;;;;;5109542;28;20051;-74
2022/11/20 10:18:53;;;;;;;4.43;2.20;;;;;;;;;;5108564;28;20039;-72
2022/11/20 10:21:39;;;;;;;5.13;2.15;;;;;;;;;;5109026;28;20048;-74
2022/11/20 10:24:23;;;;;;;9.43;2.10;;;;;;;;;;5109024;28;20043;-70
2022/11/20 10:27:32;;;;;;;12.05;2.70;;;;;;;;;;5108643;28;20051;-73
2022/11/20 10:30:18;;;;;;;5.13;2.30;;;;;;;;;;5108072;28;20055;-75
2022/11/20 10:32:52;;;;;;;6.85;2.38;;;;;;;;;;5108411;28;20055;-71
2022/11/20 10:36:03;;;;;;;4.38;1.85;;;;;;;;;;5090006;28;20140;-73
2022/11/20 10:38:49;;;;;;;6.40;2.10;;;;;;;;;;5097323;28;20059;-75
2022/11/20 10:41:30;;;;;;;6.85;2.47;;;;;;;;;;5108875;28;20035;-76
2022/11/20 10:47:27;;;;;;;3.90;2.30;;;;;;;;;;5108287;28;20047;-72
2022/11/20 10:50:04;;;;;;;4.55;2.00;;;;;;;;;;5108590;28;20052;-74
2022/11/20 10:52:34;;;;;;;3.55;2.03;;;;;;;;;;5107992;28;20524;-75
2022/11/20 10:55:28;;;;;;;6.55;2.50;;;;;;;;;;5107834;28;20044;-78
2022/11/20 10:58:13;;;;;;;3.67;1.80;;;;;;;;;;5089413;28;20157;-75
2022/11/20 11:00:44;;;;;;;7.15;2.88;;;;;;;;;;5108684;28;20036;-72
2022/11/20 11:03:28;;;;;;;6.15;2.10;;;;;;;;;;5088808;28;20047;-72
2022/11/20 11:06:08;;;;;;;5.20;2.10;;;;;;;;;;5108331;28;20430;-73
2022/11/20 11:08:40;;;;;;;2.72;1.80;;;;;;;;;;5089000;28;20059;-78
2022/11/20 11:11:28;;;;;;;2.90;1.80;;;;;;;;;;5107907;28;20062;-75
2022/11/20 11:14:06;;;;;;;7.53;2.10;;;;;;;;;;5088150;28;20059;-72
2022/11/20 11:17:01;;;;;;;5.55;1.80;;;;;;;;;;5108046;28;20402;-76
2022/11/20 11:19:31;;;;;;;2.25;1.20;;;;;;;;;;5107920;28;20048;-73
2022/11/20 11:22:11;;;;;;;6.10;1.30;;;;;;;;;;5107960;28;20117;-75
2022/11/20 11:24:52;;;;;;;2.63;1.40;;;;;;;;;;5107541;28;20043;-76
2022/11/20 11:27:24;;;;;;;4.13;1.63;;;;;;;;;;5107722;28;20044;-73
2022/11/20 11:30:15;;;;;;;5.55;1.42;;;;;;;;;;5107370;28;20044;-74
2022/11/20 11:32:45;;;;;;;2.88;1.10;;;;;;;;;;5107211;28;20508;-74
2022/11/20 11:35:28;;;;;;;4.05;1.55;;;;;;;;;;5107477;28;20051;-72
2022/11/20 11:38:14;;;;;;;5.03;1.15;;;;;;;;;;5107638;28;20051;-73
2022/11/20 11:40:44;;;;;;;2.70;1.20;;;;;;;;;;5108010;28;20039;-73
2022/11/20 11:46:15;;;;;;;3.65;1.30;;;;;;;;;;5107379;28;20040;-76
2022/11/20 11:49:05;;;;;;;4.63;1.30;;;;;;;;;;5107720;28;20052;-76
2022/11/20 11:52:08;;;;;;;4.07;1.00;;;;;;;;;;5106700;28;20047;-75
2022/11/20 11:54:57;;;;;;;2.58;1.10;;;;;;;;;;5107139;28;20043;-76
2022/11/20 11:57:27;;;;;;;4.07;0.95;;;;;;;;;;5106998;28;20035;-73
2022/11/20 12:00:19;;;;;;;2.17;1.13;;;;;;;;;;5107528;28;20602;-76
2022/11/20 12:03:10;;;;;;;2.70;1.13;;;;;;;;;;5107396;28;20040;-72
2022/11/20 12:05:49;;;;;;;4.00;1.30;;;;;;;;;;5106608;28;20044;-72
2022/11/20 12:08:27;;;;;;;2.22;1.20;;;;;;;;;;5106437;28;20079;-76
2022/11/20 12:11:00;;;;;;;3.17;1.10;;;;;;;;;;5088282;28;20068;-79
2022/11/20 12:13:47;;;;;;;3.83;1.60;;;;;;;;;;5107310;28;20047;-77
2022/11/20 12:16:20;;;;;;;1.73;1.10;;;;;;;;;;5107119;28;20047;-76
2022/11/20 12:18:52;;;;;;;2.50;1.20;;;;;;;;;;5107236;28;20036;-74
2022/11/20 12:21:23;;;;;;;4.10;1.33;;;;;;;;;;5106526;28;20043;-73
2022/11/20 12:24:20;;;;;;;3.80;1.40;;;;;;;;;;5106710;28;20059;-76
2022/11/20 12:26:56;;;;;;;3.15;1.13;;;;;;;;;;5106305;28;20044;-75
2022/11/20 12:29:57;;;;;;;4.20;1.27;;;;;;;;;;5106513;28;20406;-73
2022/11/20 12:32:54;;;;;;;2.72;1.15;;;;;;;;;;5085192;28;20051;-70
2022/11/20 12:35:49;;;;;;;2.50;1.10;;;;;;;;;;5084781;28;20051;-74
2022/11/20 12:38:40;;;;;;;8.25;3.67;;;;;;;;;;5086392;28;20059;-71
2022/11/20 12:45:14;;;;;;;5.32;1.20;;;;;;;;;;5023776;28;20056;-70
2022/11/20 12:48:20;;;;;;;2.95;1.00;;;;;;;;;;5026598;28;20053;-71
2022/11/20 12:51:15;;;;;;;2.50;1.00;;;;;;;;;;5093150;28;20736;-74
2022/11/20 12:54:22;;;;;;;2.92;1.17;;;;;;;;;;5086036;28;20055;-74
2022/11/20 12:57:00;;;;;;;4.25;1.40;;;;;;;;;;5089396;28;20044;-73
2022/11/20 12:59:47;;;;;;;3.40;1.30;;;;;;;;;;5094156;28;20041;-75
2022/11/20 13:02:35;;;;;;;1.95;0.95;;;;;;;;;;5085611;28;20044;-72
2022/11/20 13:05:13;;;;;;;3.35;1.27;;;;;;;;;;5086303;28;20052;-74
2022/11/20 13:07:44;;;;;;;4.80;1.35;;;;;;;;;;5084190;28;20056;-74
2022/11/20 13:10:37;;;;;;;2.47;1.13;;;;;;;;;;5086239;28;20047;-74
2022/11/20 13:13:22;;;;;;;1.75;0.88;;;;;;;;;;5085604;28;20054;-74
2022/11/20 13:16:06;;;;;;;2.75;0.95;;;;;;;;;;5085924;28;20063;-76
2022/11/20 13:18:42;;;;;;;4.15;1.15;;;;;;;;;;5101019;28;20048;-77
2022/11/20 13:21:39;;;;;;;5.50;1.15;;;;;;;;;;5089198;28;20052;-74
2022/11/20 13:24:26;;;;;;;3.95;0.93;;;;;;;;;;5089474;28;20040;-74
2022/11/20 13:27:18;;;;;;;1.95;1.00;;;;;;;;;;5089774;28;20043;-76
2022/11/20 13:30:01;;;;;;;3.30;1.17;;;;;;;;;;5089731;28;20052;-74
2022/11/20 13:32:32;;;;;;;2.90;1.20;;;;;;;;;;5100467;28;20506;-75
2022/11/20 13:35:05;;;;;;;4.63;1.40;;;;;;;;;;5091586;28;20054;-75
2022/11/20 13:37:38;;;;;;;6.53;1.63;;;;;;;;;;5109762;28;20048;-74
2022/11/20 13:40:12;;;;;;;4.82;1.25;;;;;;;;;;5109977;28;20540;-73
2022/11/20 13:43:17;;;;;;;2.55;1.30;;;;;;;;;;5091142;28;20059;-80
2022/11/20 13:46:09;;;;;;;2.95;0.90;;;;;;;;;;5093756;28;20059;-72
2022/11/20 13:48:43;;;;;;;3.60;1.23;;;;;;;;;;5092323;28;20054;-76
2022/11/20 13:51:37;;;;;;;3.47;1.20;;;;;;;;;;5109499;28;20401;-76
2022/11/20 13:54:22;;;;;;;3.28;1.10;;;;;;;;;;5108363;28;20529;-72
2022/11/20 13:57:11;;;;;;;3.58;1.00;;;;;;;;;;5109043;28;20051;-74
2022/11/20 13:59:53;;;;;;;5.18;2.22;;;;;;;;;;5109879;28;20052;-75
2022/11/20 14:02:27;;;;;;;4.47;1.13;;;;;;;;;;5109346;28;20074;-75
2022/11/20 14:05:01;;;;;;;3.00;1.13;;;;;;;;;;5109449;28;20351;-73
2022/11/20 14:07:51;;;;;;;5.22;1.00;;;;;;;;;;5109071;28;20051;-74
2022/11/20 14:10:26;;;;;;;2.90;0.98;;;;;;;;;;5108925;28;20125;-77
2022/11/20 14:13:10;;;;;;;3.85;1.10;;;;;;;;;;5091789;28;20347;-75
2022/11/20 14:15:42;;;;;;;2.90;1.05;;;;;;;;;;5109026;28;20386;-77
2022/11/20 14:18:19;;;;;;;1.40;0.93;;;;;;;;;;5108430;28;20739;-73
2022/11/20 14:20:49;;;;;;;3.95;1.20;;;;;;;;;;5089781;28;20579;-73
2022/11/20 14:23:38;;;;;;;3.40;1.17;;;;;;;;;;5109398;28;20044;-74
2022/11/20 14:26:14;;;;;;;4.97;1.02;;;;;;;;;;5109165;28;20048;-74
2022/11/20 14:28:50;;;;;;;2.47;1.00;;;;;;;;;;5108605;28;20051;-74
2022/11/20 14:31:25;;;;;;;3.58;0.93;;;;;;;;;;5108723;28;20498;-73
2022/11/20 14:33:56;;;;;;;3.85;1.13;;;;;;;;;;5108580;28;20047;-74
2022/11/20 14:36:27;;;;;;;2.17;1.10;;;;;;;;;;5090488;28;20059;-74
2022/11/20 14:38:57;;;;;;;4.53;1.02;;;;;;;;;;5107308;28;20488;-71
2022/11/20 14:41:27;;;;;;;3.92;1.50;;;;;;;;;;5106928;28;20056;-78
2022/11/20 14:43:59;;;;;;;2.95;1.10;;;;;;;;;;5108835;28;20121;-75
2022/11/20 14:46:31;;;;;;;3.10;1.05;;;;;;;;;;5108519;28;20058;-72
2022/11/20 14:49:04;;;;;;;3.55;1.02;;;;;;;;;;5108644;28;20040;-77
2022/11/20 14:51:42;;;;;;;1.55;0.90;;;;;;;;;;5108517;28;20051;-72
2022/11/20 14:54:23;;;;;;;3.55;1.17;;;;;;;;;;5108562;28;20402;-73
2022/11/20 14:57:01;;;;;;;3.17;1.30;;;;;;;;;;5108120;28;20409;-71
2022/11/20 14:59:33;;;;;;;2.05;0.90;;;;;;;;;;5108775;28;20043;-73
2022/11/20 15:02:09;;;;;;;4.68;2.22;;;;;;;;;;5108253;28;20083;-74
2022/11/20 15:04:50;;;;;;;1.88;1.00;;;;;;;;;;5108150;28;20051;-75
2022/11/20 15:07:28;;;;;;;2.90;1.25;;;;;;;;;;5107882;28;20055;-71
2022/11/20 15:10:08;;;;;;;2.83;1.20;;;;;;;;;;5108368;28;20054;-71
2022/11/20 15:12:56;;;;;;;1.65;1.00;;;;;;;;;;5111731;28;20047;-75
2022/11/20 15:15:39;;;;;;;3.22;1.20;;;;;;;;;;5091437;28;20493;-75
2022/11/20 15:18:32;;;;;;;2.75;1.25;;;;;;;;;;5108231;28;20133;-74
2022/11/20 15:21:04;;;;;;;3.42;1.40;;;;;;;;;;5108225;28;20043;-71
2022/11/20 15:23:35;;;;;;;3.72;1.38;;;;;;;;;;5107643;28;20051;-75
2022/11/20 15:26:12;;;;;;;3.17;1.60;;;;;;;;;;5107695;28;20715;-76
2022/11/20 15:28:49;;;;;;;3.47;1.08;;;;;;;;;;5107742;28;20063;-75
2022/11/20 15:31:22;;;;;;;5.05;1.13;;;;;;;;;;5088310;28;20066;-74
2022/11/20 15:33:53;;;;;;;2.30;1.15;;;;;;;;;;5107593;28;20048;-76
2022/11/20 15:36:22;;;;;;;2.47;1.23;;;;;;;;;;5107147;28;20058;-75
2022/11/20 15:38:52;;;;;;;4.07;1.17;;;;;;;;;;5107520;28;20058;-77
2022/11/20 15:41:22;;;;;;;3.10;1.00;;;;;;;;;;5106891;28;20040;-73
2022/11/20 15:43:52;;;;;;;4.20;1.15;;;;;;;;;;5107567;28;20044;-74
2022/11/20 15:46:28;;;;;;;3.35;1.30;;;;;;;;;;5107319;28;20051;-72
2022/11/20 15:49:00;;;;;;;5.57;1.42;;;;;;;;;;5106911;28;20040;-77